createdAt,value
2023-05-04T00:01:59.249Z,11.55
2023-05-04T00:05:01.549Z,11.51
2023-05-04T00:08:03.744Z,11.37
2023-05-04T00:11:08.512Z,11.28
2023-05-04T00:14:10.581Z,11.45
2023-05-04T00:17:13.004Z,11.43
2023-05-04T00:20:14.982Z,11.42
2023-05-04T00:23:16.889Z,11.31
2023-05-04T00:26:18.779Z,11.21
2023-05-04T00:29:21.756Z,11.35
2023-05-04T00:32:23.687Z,11.33
2023-05-04T00:35:25.622Z,11.13
2023-05-04T00:38:27.571Z,11.09
2023-05-04T00:41:29.604Z,11.15
2023-05-04T00:44:31.786Z,11.05
2023-05-04T00:47:33.769Z,11.05
2023-05-04T00:50:38.359Z,10.96
2023-05-04T00:53:41.348Z,11.20
2023-05-04T00:56:43.760Z,11.22
2023-05-04T00:59:47.800Z,11.15
2023-05-04T01:02:49.811Z,11.01
2023-05-04T01:06:29.451Z,10.97
2023-05-04T01:09:45.181Z,10.89
2023-05-04T01:12:56.119Z,10.94
2023-05-04T01:15:58.619Z,11.00
2023-05-04T01:19:01.242Z,11.00
2023-05-04T01:22:03.168Z,10.89
2023-05-04T01:25:06.162Z,10.86
2023-05-04T01:28:13.999Z,10.97
2023-05-04T01:31:23.441Z,10.97
2023-05-04T01:34:25.396Z,10.90
2023-05-04T01:37:28.449Z,10.97
2023-05-04T01:40:30.749Z,10.94
2023-05-04T01:43:32.674Z,10.76
2023-05-04T01:46:34.634Z,10.88
2023-05-04T01:49:36.678Z,10.98
2023-05-04T01:52:38.743Z,10.90
2023-05-04T01:55:40.719Z,10.85
2023-05-04T01:58:43.767Z,10.76
2023-05-04T02:01:45.813Z,10.89
2023-05-04T02:04:47.762Z,10.81
2023-05-04T02:07:49.732Z,10.81
2023-05-04T02:10:53.610Z,11.02
2023-05-04T02:13:55.590Z,10.88
2023-05-04T02:16:57.490Z,10.98
2023-05-04T02:19:59.407Z,10.81
2023-05-04T02:23:01.364Z,11.01
2023-05-04T02:26:03.351Z,11.02
2023-05-04T02:29:06.057Z,11.06
2023-05-04T02:32:08.015Z,11.04
2023-05-04T02:35:10.013Z,11.05
2023-05-04T02:38:14.595Z,10.98
2023-05-04T02:41:17.236Z,11.08
2023-05-04T02:44:20.056Z,11.05
2023-05-04T02:47:21.926Z,10.97
2023-05-04T02:50:25.710Z,10.98
2023-05-04T02:53:27.697Z,10.94
2023-05-04T02:56:29.727Z,10.93
2023-05-04T02:59:31.639Z,10.98
2023-05-04T03:02:33.694Z,10.85
2023-05-04T03:05:35.743Z,10.88
2023-05-04T03:08:37.673Z,10.84
2023-05-04T03:11:40.604Z,10.81
2023-05-04T03:14:42.707Z,10.69
2023-05-04T03:17:44.831Z,10.71
2023-05-04T03:20:47.412Z,10.68
2023-05-04T03:23:53.180Z,10.68
2023-05-04T03:26:55.302Z,10.72
2023-05-04T03:29:57.891Z,10.73
2023-05-04T03:33:01.433Z,10.72
2023-05-04T03:36:04.569Z,10.77
2023-05-04T03:39:06.639Z,10.80
2023-05-04T03:42:09.662Z,10.72
2023-05-04T03:45:11.793Z,10.66
2023-05-04T03:48:13.771Z,10.58
2023-05-04T03:51:17.859Z,10.79
2023-05-04T03:54:19.809Z,10.54
2023-05-04T03:57:22.423Z,10.66
2023-05-04T04:00:25.567Z,10.71
2023-05-04T04:03:36.754Z,10.72
2023-05-04T04:06:39.625Z,10.69
2023-05-04T04:09:42.916Z,10.59
2023-05-04T04:12:44.804Z,10.62
2023-05-04T04:15:46.967Z,10.67
2023-05-04T04:18:48.973Z,11.07
2023-05-04T04:21:51.859Z,11.31
2023-05-04T04:24:54.037Z,11.09
2023-05-04T04:27:55.897Z,11.18
2023-05-04T04:30:58.581Z,11.40
2023-05-04T04:34:00.824Z,11.77
2023-05-04T04:37:02.926Z,11.64
2023-05-04T04:40:06.985Z,11.18
2023-05-04T04:43:14.242Z,11.30
2023-05-04T04:46:16.322Z,11.91
2023-05-04T04:49:18.889Z,12.02
2023-05-04T04:52:20.904Z,11.88
2023-05-04T04:55:25.921Z,12.05
2023-05-04T04:58:28.024Z,12.30
2023-05-04T05:01:30.356Z,12.30
2023-05-04T05:04:32.811Z,12.65
2023-05-04T05:07:34.744Z,12.65
2023-05-04T05:10:38.176Z,12.60
2023-05-04T05:13:40.196Z,12.65
2023-05-04T05:16:42.224Z,12.93
2023-05-04T05:19:44.113Z,12.96
2023-05-04T05:22:46.101Z,13.26
2023-05-04T05:25:48.125Z,13.32
2023-05-04T05:28:50.046Z,13.11
2023-05-04T05:31:52.148Z,13.27
2023-05-04T05:34:54.159Z,13.24
2023-05-04T05:37:56.068Z,13.20
2023-05-04T05:40:58.797Z,13.19
2023-05-04T05:44:00.726Z,13.46
2023-05-04T05:47:02.808Z,13.44
2023-05-04T05:50:05.607Z,12.94
2023-05-04T05:53:08.462Z,13.32
2023-05-04T05:56:11.064Z,12.93
2023-05-04T05:59:13.087Z,13.38
2023-05-04T06:02:15.384Z,13.45
2023-05-04T06:05:17.372Z,13.32
2023-05-04T06:08:19.366Z,13.43
2023-05-04T06:11:21.565Z,13.76
2023-05-04T06:14:23.534Z,13.95
2023-05-04T06:17:25.561Z,13.46
2023-05-04T06:20:29.258Z,14.17
2023-05-04T06:23:31.742Z,14.20
2023-05-04T06:26:33.642Z,14.25
2023-05-04T06:29:38.257Z,13.97
2023-05-04T06:32:40.229Z,13.57
2023-05-04T06:35:42.263Z,13.47
2023-05-04T06:38:44.213Z,13.47
2023-05-04T06:41:46.252Z,13.40
2023-05-04T06:44:48.798Z,13.32
2023-05-04T06:47:50.759Z,13.26
2023-05-04T06:50:53.814Z,13.18
2023-05-04T06:53:55.977Z,13.55
2023-05-04T06:56:57.944Z,13.11
2023-05-04T06:59:59.868Z,13.25
2023-05-04T07:03:02.135Z,12.98
2023-05-04T07:06:04.383Z,13.22
2023-05-04T07:09:06.422Z,13.09
2023-05-04T07:12:08.476Z,13.23
2023-05-04T07:15:10.960Z,12.94
2023-05-04T07:18:13.085Z,13.27
2023-05-04T07:21:27.622Z,13.37
2023-05-04T07:24:31.303Z,13.26
2023-05-04T07:27:35.054Z,12.94
2023-05-04T07:30:38.850Z,12.93
2023-05-04T07:33:40.963Z,13.11
2023-05-04T07:36:46.554Z,13.27
2023-05-04T07:39:48.550Z,13.37
2023-05-04T07:42:50.654Z,13.38
2023-05-04T07:45:53.897Z,13.33
2023-05-04T07:48:56.007Z,13.32
2023-05-04T07:51:58.333Z,13.34
2023-05-04T07:55:00.277Z,13.49
2023-05-04T07:58:02.329Z,13.50
2023-05-04T08:01:04.830Z,13.46
2023-05-04T08:04:06.735Z,13.40
2023-05-04T08:07:09.063Z,13.56
2023-05-04T08:10:11.133Z,13.49
2023-05-04T08:13:13.196Z,13.39
2023-05-04T08:16:15.662Z,13.63
2023-05-04T08:19:19.069Z,13.82
2023-05-04T08:22:21.269Z,13.80
2023-05-04T08:25:23.147Z,13.78
2023-05-04T08:28:25.093Z,13.97
2023-05-04T08:31:28.311Z,13.93
2023-05-04T08:34:30.495Z,14.06
2023-05-04T08:37:32.777Z,13.84
2023-05-04T08:40:36.294Z,13.83
2023-05-04T08:43:38.588Z,14.17
2023-05-04T08:46:41.293Z,14.36
2023-05-04T08:49:43.220Z,14.43
2023-05-04T08:52:48.993Z,14.22
2023-05-04T08:55:52.707Z,14.72
2023-05-04T08:58:58.047Z,14.74
2023-05-04T09:02:33.365Z,14.83
2023-05-04T09:05:36.132Z,15.50
2023-05-04T09:08:38.068Z,15.01
2023-05-04T09:11:40.399Z,15.34
2023-05-04T09:14:42.467Z,14.80
2023-05-04T09:17:58.486Z,15.43
2023-05-04T09:21:01.163Z,16.24
2023-05-04T09:24:03.376Z,16.16
2023-05-04T09:27:10.871Z,16.97
2023-05-04T09:30:12.809Z,16.62
2023-05-04T09:33:16.438Z,16.39
2023-05-04T09:36:21.050Z,16.99
2023-05-04T09:39:23.086Z,16.92
2023-05-04T09:42:25.706Z,16.48
2023-05-04T09:45:40.805Z,16.95
2023-05-04T09:48:53.824Z,17.29
2023-05-04T09:51:58.251Z,17.17
2023-05-04T09:55:01.050Z,17.50
2023-05-04T09:58:03.272Z,17.87
2023-05-04T10:01:05.980Z,16.67
2023-05-04T10:04:08.095Z,17.63
2023-05-04T10:07:09.983Z,17.85
2023-05-04T10:10:13.491Z,17.93
2023-05-04T10:13:17.025Z,17.98
2023-05-04T10:16:31.742Z,17.07
2023-05-04T10:19:55.256Z,17.03
2023-05-04T10:23:25.695Z,17.03
2023-05-04T10:26:47.747Z,16.66
2023-05-04T10:29:51.584Z,16.82
2023-05-04T10:32:58.720Z,17.45
2023-05-04T10:36:00.821Z,17.24
2023-05-04T10:39:03.565Z,16.99
2023-05-04T10:42:07.043Z,17.61
2023-05-04T10:45:09.731Z,18.04
2023-05-04T10:48:12.639Z,17.41
2023-05-04T10:51:19.834Z,18.39
2023-05-04T10:54:21.916Z,17.89
2023-05-04T10:57:23.794Z,17.88
2023-05-04T11:00:37.484Z,17.81
2023-05-04T11:03:43.362Z,17.79
2023-05-04T11:06:59.069Z,18.10
2023-05-04T11:10:01.576Z,17.85
2023-05-04T11:13:06.086Z,18.26
2023-05-04T11:16:12.611Z,18.28
2023-05-04T11:19:17.943Z,18.16
2023-05-04T11:22:20.281Z,18.06
2023-05-04T11:25:29.780Z,18.23
2023-05-04T11:28:36.091Z,17.69
2023-05-04T11:31:38.497Z,18.21
2023-05-04T11:34:46.280Z,18.30
2023-05-04T11:37:49.648Z,18.00
2023-05-04T11:40:52.540Z,18.09
2023-05-04T11:43:54.592Z,18.43
2023-05-04T11:46:56.819Z,18.58
2023-05-04T11:49:58.753Z,18.47
2023-05-04T11:53:09.258Z,18.69
2023-05-04T11:56:11.667Z,18.83
2023-05-04T11:59:14.284Z,19.14
2023-05-04T12:02:17.607Z,19.17
2023-05-04T12:06:01.937Z,19.22
2023-05-04T12:09:23.837Z,19.27
2023-05-04T12:12:35.311Z,19.29
2023-05-04T12:15:37.349Z,18.83
2023-05-04T12:18:39.883Z,18.83
2023-05-04T12:21:56.780Z,18.85
2023-05-04T12:25:01.779Z,18.59
2023-05-04T12:28:04.208Z,19.40
2023-05-04T12:31:09.393Z,18.75
2023-05-04T12:34:11.432Z,18.67
2023-05-04T12:37:13.383Z,19.09
2023-05-04T12:40:27.808Z,19.18
2023-05-04T12:43:31.368Z,19.34
2023-05-04T12:46:33.435Z,19.49
2023-05-04T12:49:35.444Z,18.86
2023-05-04T12:52:37.366Z,19.22
2023-05-04T12:55:39.396Z,19.42
2023-05-04T12:58:41.283Z,19.17
2023-05-04T13:01:43.291Z,19.15
2023-05-04T13:04:45.309Z,19.32
2023-05-04T13:07:47.222Z,19.27
2023-05-04T13:10:49.246Z,19.20
2023-05-04T13:13:53.378Z,19.55
2023-05-04T13:16:55.225Z,18.98
2023-05-04T13:19:57.183Z,19.52
2023-05-04T13:22:59.272Z,19.86
2023-05-04T13:26:01.189Z,19.28
2023-05-04T13:29:03.562Z,18.70
2023-05-04T13:32:06.628Z,19.25
2023-05-04T13:35:09.213Z,19.31
2023-05-04T13:38:11.245Z,19.40
2023-05-04T13:41:13.207Z,19.63
2023-05-04T13:44:15.077Z,19.45
2023-05-04T13:47:17.660Z,20.03
2023-05-04T13:50:20.734Z,19.40
2023-05-04T13:53:25.019Z,19.24
2023-05-04T13:56:26.956Z,19.64
2023-05-04T13:59:30.153Z,19.38
2023-05-04T14:02:32.978Z,19.59
2023-05-04T14:05:35.786Z,19.45
2023-05-04T14:08:37.937Z,18.98
2023-05-04T14:11:39.939Z,19.07
2023-05-04T14:14:42.008Z,19.31
2023-05-04T14:17:43.950Z,19.44
2023-05-04T14:20:46.231Z,19.30
2023-05-04T14:23:48.177Z,19.08
2023-05-04T14:26:50.109Z,19.02
2023-05-04T14:29:52.333Z,19.33
2023-05-04T14:32:55.427Z,19.11
2023-05-04T14:35:57.852Z,19.10
2023-05-04T14:39:01.575Z,18.98
2023-05-04T14:42:03.627Z,18.85
2023-05-04T14:45:07.318Z,19.14
2023-05-04T14:48:10.303Z,19.44
2023-05-04T14:51:13.791Z,19.73
2023-05-04T14:54:15.961Z,19.07
2023-05-04T14:57:18.408Z,19.18
2023-05-04T15:00:20.582Z,18.90
2023-05-04T15:03:22.667Z,18.81
2023-05-04T15:06:24.768Z,18.75
2023-05-04T15:09:27.245Z,18.79
2023-05-04T15:12:29.667Z,18.92
2023-05-04T15:15:31.555Z,18.78
2023-05-04T15:18:33.674Z,18.55
2023-05-04T15:21:35.639Z,18.84
2023-05-04T15:24:37.831Z,18.81
2023-05-04T15:27:39.795Z,18.54
2023-05-04T15:30:42.810Z,18.76
2023-05-04T15:33:44.831Z,18.80
2023-05-04T15:36:46.952Z,18.62
2023-05-04T15:39:48.994Z,18.26
2023-05-04T15:42:51.095Z,18.50
2023-05-04T15:45:53.155Z,18.47
2023-05-04T15:48:55.214Z,18.36
2023-05-04T15:51:57.097Z,18.19
2023-05-04T15:55:04.224Z,18.23
2023-05-04T15:58:14.854Z,18.29
2023-05-04T16:01:18.283Z,17.65
2023-05-04T16:04:20.914Z,18.10
2023-05-04T16:07:22.840Z,17.47
2023-05-04T16:10:26.672Z,17.50
2023-05-04T16:13:28.716Z,17.70
2023-05-04T16:16:30.805Z,17.51
2023-05-04T16:19:32.834Z,17.58
2023-05-04T16:22:34.773Z,17.12
2023-05-04T16:25:36.655Z,17.34
2023-05-04T16:28:40.498Z,17.14
2023-05-04T16:31:42.563Z,16.94
2023-05-04T16:34:44.661Z,16.80
2023-05-04T16:37:46.732Z,16.53
2023-05-04T16:40:52.083Z,16.67
2023-05-04T16:43:54.174Z,16.51
2023-05-04T16:46:56.072Z,16.51
2023-05-04T16:49:59.040Z,16.34
2023-05-04T16:53:01.263Z,16.08
2023-05-04T16:56:03.298Z,16.05
2023-05-04T16:59:05.333Z,16.10
2023-05-04T17:02:08.741Z,16.10
2023-05-04T17:05:10.828Z,15.94
2023-05-04T17:08:13.213Z,15.76
2023-05-04T17:11:16.432Z,15.87
2023-05-04T17:14:18.389Z,15.39
2023-05-04T17:17:20.705Z,15.58
2023-05-04T17:20:28.714Z,15.33
2023-05-04T17:23:31.380Z,15.40
2023-05-04T17:26:33.339Z,15.39
2023-05-04T17:29:41.702Z,14.92
2023-05-04T17:32:43.656Z,14.97
2023-05-04T17:35:45.725Z,14.86
2023-05-04T17:38:47.712Z,14.71
2023-05-04T17:41:49.695Z,14.67
2023-05-04T17:44:51.879Z,14.53
2023-05-04T17:47:53.900Z,14.26
2023-05-04T17:50:56.378Z,14.21
2023-05-04T17:53:58.386Z,14.21
2023-05-04T17:57:00.370Z,13.90
2023-05-04T18:00:03.243Z,13.94
2023-05-04T18:03:07.124Z,13.96
2023-05-04T18:06:09.245Z,13.61
2023-05-04T18:09:11.792Z,13.67
2023-05-04T18:12:13.693Z,13.83
2023-05-04T18:15:17.224Z,13.75
2023-05-04T18:18:19.216Z,13.67
2023-05-04T18:21:21.227Z,13.54
2023-05-04T18:24:23.290Z,13.61
2023-05-04T18:27:25.637Z,13.29
2023-05-04T18:30:33.006Z,13.38
2023-05-04T18:33:35.005Z,13.19
2023-05-04T18:36:43.816Z,13.19
2023-05-04T18:39:45.768Z,13.21
2023-05-04T18:42:47.817Z,13.32
2023-05-04T18:45:49.799Z,13.23
2023-05-04T18:48:53.230Z,13.16
2023-05-04T18:51:55.813Z,13.08
2023-05-04T18:54:57.953Z,12.93
2023-05-04T18:58:01.079Z,12.70
2023-05-04T19:01:04.157Z,12.84
2023-05-04T19:04:06.317Z,12.71
2023-05-04T19:07:09.901Z,12.66
2023-05-04T19:10:13.690Z,12.70
2023-05-04T19:13:16.469Z,12.48
2023-05-04T19:16:18.595Z,12.54
2023-05-04T19:19:20.824Z,12.43
2023-05-04T19:22:22.793Z,12.65
2023-05-04T19:25:34.226Z,12.81
2023-05-04T19:28:39.878Z,12.83
2023-05-04T19:31:42.535Z,12.69
2023-05-04T19:34:44.538Z,12.54
2023-05-04T19:37:47.345Z,12.44
2023-05-04T19:40:50.861Z,12.45
2023-05-04T19:43:52.693Z,12.32
2023-05-04T19:46:54.700Z,12.38
2023-05-04T19:49:56.833Z,12.50
2023-05-04T19:52:58.948Z,12.50
2023-05-04T19:56:00.986Z,12.39
2023-05-04T19:59:02.991Z,12.47
2023-05-04T20:02:04.951Z,12.56
2023-05-04T20:05:07.168Z,12.25
2023-05-04T20:08:09.048Z,12.11
2023-05-04T20:11:13.859Z,12.03
2023-05-04T20:14:15.720Z,12.13
2023-05-04T20:17:17.910Z,12.18
2023-05-04T20:20:21.905Z,12.15
2023-05-04T20:23:24.146Z,12.13
2023-05-04T20:26:26.152Z,12.29
2023-05-04T20:29:29.073Z,12.46
2023-05-04T20:32:31.572Z,12.36
2023-05-04T20:35:33.592Z,12.51
2023-05-04T20:38:35.529Z,12.40
2023-05-04T20:41:45.065Z,12.53
2023-05-04T20:44:47.073Z,12.53
2023-05-04T20:47:49.390Z,12.31
2023-05-04T20:51:06.625Z,12.43
2023-05-04T20:54:15.891Z,12.27
2023-05-04T20:57:17.955Z,12.33
2023-05-04T21:00:20.628Z,12.38
2023-05-04T21:03:23.045Z,12.44
2023-05-04T21:06:25.375Z,12.49
2023-05-04T21:09:28.076Z,12.47
2023-05-04T21:12:30.131Z,12.33
2023-05-04T21:15:32.060Z,12.18
2023-05-04T21:18:35.541Z,12.12
2023-05-04T21:21:40.810Z,12.23
2023-05-04T21:24:47.636Z,12.17
2023-05-04T21:27:49.695Z,12.10
2023-05-04T21:30:54.756Z,11.98
2023-05-04T21:33:56.935Z,11.90
2023-05-04T21:36:58.787Z,12.04
2023-05-04T21:40:01.239Z,12.02
2023-05-04T21:43:03.430Z,12.09
2023-05-04T21:46:06.852Z,12.16
2023-05-04T21:49:09.100Z,12.14
2023-05-04T21:52:11.136Z,11.94
2023-05-04T21:55:13.723Z,11.65
2023-05-04T21:58:17.284Z,11.54
2023-05-04T22:01:20.160Z,11.49
2023-05-04T22:04:22.172Z,11.25
2023-05-04T22:07:24.001Z,11.17
2023-05-04T22:10:28.397Z,10.87
2023-05-04T22:13:50.339Z,10.91
2023-05-04T22:16:53.287Z,10.94
2023-05-04T22:19:55.413Z,11.15
2023-05-04T22:22:57.256Z,11.31
2023-05-04T22:25:59.226Z,11.39
2023-05-04T22:29:01.329Z,11.41
2023-05-04T22:32:03.219Z,11.47
2023-05-04T22:35:05.457Z,11.32
2023-05-04T22:38:07.540Z,11.15
2023-05-04T22:41:09.641Z,11.07
2023-05-04T22:44:12.083Z,11.09
2023-05-04T22:47:13.947Z,11.27
2023-05-04T22:50:16.115Z,11.39
2023-05-04T22:53:18.148Z,11.38
2023-05-04T22:56:20.968Z,11.67
2023-05-04T22:59:22.980Z,11.53
2023-05-04T23:02:25.545Z,11.36
2023-05-04T23:05:27.917Z,11.21
2023-05-04T23:08:30.042Z,11.17
2023-05-04T23:11:32.244Z,11.18
2023-05-04T23:14:34.867Z,11.18
2023-05-04T23:17:38.570Z,10.97
2023-05-04T23:20:40.599Z,11.04
2023-05-04T23:23:42.714Z,10.91
2023-05-04T23:26:44.633Z,10.93
2023-05-04T23:29:46.486Z,10.87
2023-05-04T23:32:48.540Z,10.96
2023-05-04T23:35:54.293Z,11.02
2023-05-04T23:38:56.312Z,11.03
2023-05-04T23:41:58.467Z,11.12
2023-05-04T23:45:00.450Z,11.17
2023-05-04T23:48:02.445Z,11.09
2023-05-04T23:51:04.833Z,11.11
2023-05-04T23:54:06.878Z,11.27
2023-05-04T23:57:09.017Z,11.23
